sensor_id;sensor_type;location;lat;lon;timestamp;temperature;humidity
7934;DHT22;4012;48.896;9.192;2023-07-13T00:01:16;21.40;99.90
7934;DHT22;4012;48.896;9.192;2023-07-13T00:03:42;21.40;99.90
7934;DHT22;4012;48.896;9.192;2023-07-13T00:06:08;21.30;99.90
7934;DHT22;4012;48.896;9.192;2023-07-13T00:08:35;21.20;99.90
7934;DHT22;4012;48.896;9.192;2023-07-13T00:11:01;21.20;99.90
7934;DHT22;4012;48.896;9.192;2023-07-13T00:13:28;21.10;99.90
7934;DHT22;4012;48.896;9.192;2023-07-13T00:15:54;21.00;99.90
7934;DHT22;4012;48.896;9.192;2023-07-13T00:18:21;21.00;99.90
7934;DHT22;4012;48.896;9.192;2023-07-13T00:20:50;20.90;99.90
7934;DHT22;4012;48.896;9.192;2023-07-13T00:23:16;20.80;99.90
7934;DHT22;4012;48.896;9.192;2023-07-13T00:25:42;20.80;99.90
7934;DHT22;4012;48.896;9.192;2023-07-13T00:28:10;20.70;99.90
7934;DHT22;4012;48.896;9.192;2023-07-13T00:30:36;20.70;99.90
7934;DHT22;4012;48.896;9.192;2023-07-13T00:33:01;20.60;99.90
7934;DHT22;4012;48.896;9.192;2023-07-13T00:35:30;20.50;99.90
7934;DHT22;4012;48.896;9.192;2023-07-13T00:37:56;20.40;99.90
7934;DHT22;4012;48.896;9.192;2023-07-13T00:40:22;20.40;99.90
7934;DHT22;4012;48.896;9.192;2023-07-13T00:42:47;20.30;99.90
7934;DHT22;4012;48.896;9.192;2023-07-13T00:47:41;20.10;99.90
7934;DHT22;4012;48.896;9.192;2023-07-13T00:50:09;20.00;99.90
7934;DHT22;4012;48.896;9.192;2023-07-13T00:52:41;19.90;99.90
7934;DHT22;4012;48.896;9.192;2023-07-13T00:55:07;19.90;99.90
7934;DHT22;4012;48.896;9.192;2023-07-13T00:57:35;19.80;99.90
7934;DHT22;4012;48.896;9.192;2023-07-13T01:00:03;19.80;99.90
7934;DHT22;4012;48.896;9.192;2023-07-13T01:02:32;19.70;99.90
7934;DHT22;4012;48.896;9.192;2023-07-13T01:04:58;19.70;99.90
7934;DHT22;4012;48.896;9.192;2023-07-13T01:07:24;19.60;99.90
7934;DHT22;4012;48.896;9.192;2023-07-13T01:09:50;19.60;99.90
7934;DHT22;4012;48.896;9.192;2023-07-13T01:12:16;19.50;99.90
7934;DHT22;4012;48.896;9.192;2023-07-13T01:14:42;19.50;99.90
7934;DHT22;4012;48.896;9.192;2023-07-13T01:17:10;19.50;99.90
7934;DHT22;4012;48.896;9.192;2023-07-13T01:19:37;19.50;99.90
7934;DHT22;4012;48.896;9.192;2023-07-13T01:22:13;19.40;99.90
7934;DHT22;4012;48.896;9.192;2023-07-13T01:24:41;19.40;99.90
7934;DHT22;4012;48.896;9.192;2023-07-13T01:27:09;19.40;99.90
7934;DHT22;4012;48.896;9.192;2023-07-13T01:29:36;19.30;99.90
7934;DHT22;4012;48.896;9.192;2023-07-13T01:32:15;19.30;99.90
7934;DHT22;4012;48.896;9.192;2023-07-13T01:34:41;19.20;99.90
7934;DHT22;4012;48.896;9.192;2023-07-13T01:37:11;19.10;99.90
7934;DHT22;4012;48.896;9.192;2023-07-13T01:39:37;19.10;99.90
7934;DHT22;4012;48.896;9.192;2023-07-13T01:42:03;19.00;99.90
7934;DHT22;4012;48.896;9.192;2023-07-13T01:44:29;19.00;99.90
7934;DHT22;4012;48.896;9.192;2023-07-13T01:46:54;19.00;99.90
7934;DHT22;4012;48.896;9.192;2023-07-13T01:49:20;19.00;99.90
7934;DHT22;4012;48.896;9.192;2023-07-13T01:51:46;19.00;99.90
7934;DHT22;4012;48.896;9.192;2023-07-13T01:54:11;19.00;99.90
7934;DHT22;4012;48.896;9.192;2023-07-13T01:56:37;19.00;99.90
7934;DHT22;4012;48.896;9.192;2023-07-13T01:59:02;19.10;99.90
7934;DHT22;4012;48.896;9.192;2023-07-13T02:01:28;19.10;99.90
7934;DHT22;4012;48.896;9.192;2023-07-13T02:03:54;19.10;99.90
7934;DHT22;4012;48.896;9.192;2023-07-13T02:06:19;19.10;99.90
7934;DHT22;4012;48.896;9.192;2023-07-13T02:08:45;19.10;99.90
7934;DHT22;4012;48.896;9.192;2023-07-13T02:11:10;19.10;99.90
7934;DHT22;4012;48.896;9.192;2023-07-13T02:13:36;19.10;99.90
7934;DHT22;4012;48.896;9.192;2023-07-13T02:16:02;19.10;99.90
7934;DHT22;4012;48.896;9.192;2023-07-13T02:18:27;19.10;99.90
7934;DHT22;4012;48.896;9.192;2023-07-13T02:20:53;19.20;99.90
7934;DHT22;4012;48.896;9.192;2023-07-13T02:23:19;19.10;99.90
7934;DHT22;4012;48.896;9.192;2023-07-13T02:25:45;19.10;99.90
7934;DHT22;4012;48.896;9.192;2023-07-13T02:28:11;19.10;99.90
7934;DHT22;4012;48.896;9.192;2023-07-13T02:30:36;19.10;99.90
7934;DHT22;4012;48.896;9.192;2023-07-13T02:33:03;19.00;99.90
7934;DHT22;4012;48.896;9.192;2023-07-13T02:35:29;18.90;99.90
7934;DHT22;4012;48.896;9.192;2023-07-13T02:37:54;18.80;99.90
7934;DHT22;4012;48.896;9.192;2023-07-13T02:40:22;18.80;99.90
7934;DHT22;4012;48.896;9.192;2023-07-13T02:42:48;18.80;99.90
7934;DHT22;4012;48.896;9.192;2023-07-13T02:45:14;18.80;99.90
7934;DHT22;4012;48.896;9.192;2023-07-13T02:47:40;18.80;99.90
7934;DHT22;4012;48.896;9.192;2023-07-13T02:50:07;18.80;99.90
7934;DHT22;4012;48.896;9.192;2023-07-13T02:52:32;18.80;99.90
7934;DHT22;4012;48.896;9.192;2023-07-13T02:54:58;18.80;99.90
7934;DHT22;4012;48.896;9.192;2023-07-13T02:57:23;18.80;99.90
7934;DHT22;4012;48.896;9.192;2023-07-13T02:59:49;18.80;99.90
7934;DHT22;4012;48.896;9.192;2023-07-13T03:02:15;18.70;99.90
7934;DHT22;4012;48.896;9.192;2023-07-13T03:04:41;18.70;99.90
7934;DHT22;4012;48.896;9.192;2023-07-13T03:07:07;18.60;99.90
7934;DHT22;4012;48.896;9.192;2023-07-13T03:09:34;18.70;99.90
7934;DHT22;4012;48.896;9.192;2023-07-13T03:12:00;18.60;99.90
7934;DHT22;4012;48.896;9.192;2023-07-13T03:14:26;18.60;99.90
7934;DHT22;4012;48.896;9.192;2023-07-13T03:16:52;18.60;99.90
7934;DHT22;4012;48.896;9.192;2023-07-13T03:19:18;18.60;99.90
7934;DHT22;4012;48.896;9.192;2023-07-13T03:21:44;18.60;99.90
7934;DHT22;4012;48.896;9.192;2023-07-13T03:24:10;18.70;99.90
7934;DHT22;4012;48.896;9.192;2023-07-13T03:26:35;18.70;99.90
7934;DHT22;4012;48.896;9.192;2023-07-13T03:29:01;18.70;99.90
7934;DHT22;4012;48.896;9.192;2023-07-13T03:31:28;18.80;99.90
7934;DHT22;4012;48.896;9.192;2023-07-13T03:33:55;18.80;99.90
7934;DHT22;4012;48.896;9.192;2023-07-13T03:36:24;18.80;99.90
7934;DHT22;4012;48.896;9.192;2023-07-13T03:38:55;18.80;99.90
7934;DHT22;4012;48.896;9.192;2023-07-13T03:41:22;18.90;99.90
7934;DHT22;4012;48.896;9.192;2023-07-13T03:43:48;18.90;99.90
7934;DHT22;4012;48.896;9.192;2023-07-13T03:46:14;19.00;99.90
7934;DHT22;4012;48.896;9.192;2023-07-13T03:48:41;19.00;99.90
7934;DHT22;4012;48.896;9.192;2023-07-13T03:51:09;19.10;99.90
7934;DHT22;4012;48.896;9.192;2023-07-13T03:53:39;19.00;99.90
7934;DHT22;4012;48.896;9.192;2023-07-13T03:56:05;19.10;99.90
7934;DHT22;4012;48.896;9.192;2023-07-13T03:58:33;19.20;99.90
7934;DHT22;4012;48.896;9.192;2023-07-13T04:01:00;19.30;99.90
7934;DHT22;4012;48.896;9.192;2023-07-13T04:03:27;19.20;99.90
7934;DHT22;4012;48.896;9.192;2023-07-13T04:05:55;19.20;99.90
7934;DHT22;4012;48.896;9.192;2023-07-13T04:08:28;19.20;99.90
7934;DHT22;4012;48.896;9.192;2023-07-13T04:10:54;19.20;99.90
7934;DHT22;4012;48.896;9.192;2023-07-13T04:13:20;19.20;99.90
7934;DHT22;4012;48.896;9.192;2023-07-13T04:15:45;19.20;99.90
7934;DHT22;4012;48.896;9.192;2023-07-13T04:18:11;19.20;99.90
7934;DHT22;4012;48.896;9.192;2023-07-13T04:20:37;19.20;99.90
7934;DHT22;4012;48.896;9.192;2023-07-13T04:23:02;19.40;99.90
7934;DHT22;4012;48.896;9.192;2023-07-13T04:25:28;19.50;99.90
7934;DHT22;4012;48.896;9.192;2023-07-13T04:27:54;19.60;99.90
7934;DHT22;4012;48.896;9.192;2023-07-13T04:30:20;19.50;99.90
7934;DHT22;4012;48.896;9.192;2023-07-13T04:32:46;19.50;99.90
7934;DHT22;4012;48.896;9.192;2023-07-13T04:35:12;19.50;99.90
7934;DHT22;4012;48.896;9.192;2023-07-13T04:37:39;19.50;99.90
7934;DHT22;4012;48.896;9.192;2023-07-13T04:40:06;19.40;99.90
7934;DHT22;4012;48.896;9.192;2023-07-13T04:42:32;19.40;99.90
7934;DHT22;4012;48.896;9.192;2023-07-13T04:44:59;19.30;99.90
7934;DHT22;4012;48.896;9.192;2023-07-13T04:47:25;19.20;99.90
7934;DHT22;4012;48.896;9.192;2023-07-13T04:49:51;19.20;99.90
7934;DHT22;4012;48.896;9.192;2023-07-13T04:52:16;19.10;99.90
7934;DHT22;4012;48.896;9.192;2023-07-13T04:54:42;19.10;99.90
7934;DHT22;4012;48.896;9.192;2023-07-13T04:57:07;19.10;99.90
7934;DHT22;4012;48.896;9.192;2023-07-13T04:59:34;19.00;99.90
7934;DHT22;4012;48.896;9.192;2023-07-13T05:01:59;19.10;99.90
7934;DHT22;4012;48.896;9.192;2023-07-13T05:04:26;19.10;99.90
7934;DHT22;4012;48.896;9.192;2023-07-13T05:06:52;19.20;99.90
7934;DHT22;4012;48.896;9.192;2023-07-13T05:09:17;19.40;99.90
7934;DHT22;4012;48.896;9.192;2023-07-13T05:11:43;19.60;99.90
7934;DHT22;4012;48.896;9.192;2023-07-13T05:14:09;19.80;99.90
7934;DHT22;4012;48.896;9.192;2023-07-13T05:16:38;19.90;99.90
7934;DHT22;4012;48.896;9.192;2023-07-13T05:19:03;19.90;99.90
7934;DHT22;4012;48.896;9.192;2023-07-13T05:21:29;20.00;99.90
7934;DHT22;4012;48.896;9.192;2023-07-13T05:23:54;20.20;99.90
7934;DHT22;4012;48.896;9.192;2023-07-13T05:26:20;20.40;99.90
7934;DHT22;4012;48.896;9.192;2023-07-13T05:28:46;20.60;99.90
7934;DHT22;4012;48.896;9.192;2023-07-13T05:31:12;20.70;99.90
7934;DHT22;4012;48.896;9.192;2023-07-13T05:33:39;20.30;99.90
7934;DHT22;4012;48.896;9.192;2023-07-13T05:36:04;20.40;99.90
7934;DHT22;4012;48.896;9.192;2023-07-13T05:38:30;20.50;99.90
7934;DHT22;4012;48.896;9.192;2023-07-13T05:40:57;20.50;99.90
7934;DHT22;4012;48.896;9.192;2023-07-13T05:43:23;20.60;99.90
7934;DHT22;4012;48.896;9.192;2023-07-13T05:45:49;20.70;99.90
7934;DHT22;4012;48.896;9.192;2023-07-13T05:48:16;20.70;99.90
7934;DHT22;4012;48.896;9.192;2023-07-13T05:50:42;20.80;99.90
7934;DHT22;4012;48.896;9.192;2023-07-13T05:53:07;20.70;99.90
7934;DHT22;4012;48.896;9.192;2023-07-13T05:55:33;20.40;99.90
7934;DHT22;4012;48.896;9.192;2023-07-13T05:58:00;20.30;99.90
7934;DHT22;4012;48.896;9.192;2023-07-13T06:00:26;20.30;99.90
7934;DHT22;4012;48.896;9.192;2023-07-13T06:02:51;20.40;99.90
7934;DHT22;4012;48.896;9.192;2023-07-13T06:05:17;20.40;99.90
7934;DHT22;4012;48.896;9.192;2023-07-13T06:07:43;20.40;99.90
7934;DHT22;4012;48.896;9.192;2023-07-13T06:10:09;20.40;99.90
7934;DHT22;4012;48.896;9.192;2023-07-13T06:12:34;20.50;99.90
7934;DHT22;4012;48.896;9.192;2023-07-13T06:15:00;20.60;99.90
7934;DHT22;4012;48.896;9.192;2023-07-13T06:17:25;20.70;99.90
7934;DHT22;4012;48.896;9.192;2023-07-13T06:19:51;21.10;99.90
7934;DHT22;4012;48.896;9.192;2023-07-13T06:22:17;21.50;99.90
7934;DHT22;4012;48.896;9.192;2023-07-13T06:24:42;21.50;99.90
7934;DHT22;4012;48.896;9.192;2023-07-13T06:27:08;21.40;99.90
7934;DHT22;4012;48.896;9.192;2023-07-13T06:29:34;21.50;99.90
7934;DHT22;4012;48.896;9.192;2023-07-13T06:31:59;22.10;99.90
7934;DHT22;4012;48.896;9.192;2023-07-13T06:34:25;22.70;99.90
7934;DHT22;4012;48.896;9.192;2023-07-13T06:36:51;22.70;99.90
7934;DHT22;4012;48.896;9.192;2023-07-13T06:39:16;22.60;99.90
7934;DHT22;4012;48.896;9.192;2023-07-13T06:41:42;24.20;99.90
7934;DHT22;4012;48.896;9.192;2023-07-13T06:44:07;26.70;99.90
7934;DHT22;4012;48.896;9.192;2023-07-13T06:46:33;27.20;99.90
7934;DHT22;4012;48.896;9.192;2023-07-13T06:48:58;28.00;99.90
7934;DHT22;4012;48.896;9.192;2023-07-13T06:51:24;29.80;99.90
7934;DHT22;4012;48.896;9.192;2023-07-13T06:53:51;29.10;99.90
7934;DHT22;4012;48.896;9.192;2023-07-13T06:56:17;29.40;99.90
7934;DHT22;4012;48.896;9.192;2023-07-13T06:58:42;29.10;99.90
7934;DHT22;4012;48.896;9.192;2023-07-13T07:01:08;29.40;99.90
7934;DHT22;4012;48.896;9.192;2023-07-13T07:03:34;29.20;99.90
7934;DHT22;4012;48.896;9.192;2023-07-13T07:06:22;29.10;99.90
7934;DHT22;4012;48.896;9.192;2023-07-13T07:08:49;28.10;99.90
7934;DHT22;4012;48.896;9.192;2023-07-13T07:11:18;28.30;99.90
7934;DHT22;4012;48.896;9.192;2023-07-13T07:13:44;27.60;99.90
7934;DHT22;4012;48.896;9.192;2023-07-13T07:16:09;27.30;99.90
7934;DHT22;4012;48.896;9.192;2023-07-13T07:18:35;28.60;99.90
7934;DHT22;4012;48.896;9.192;2023-07-13T07:21:01;29.80;99.90
7934;DHT22;4012;48.896;9.192;2023-07-13T07:23:27;31.00;99.90
7934;DHT22;4012;48.896;9.192;2023-07-13T07:25:52;32.60;99.90
7934;DHT22;4012;48.896;9.192;2023-07-13T07:28:18;32.90;99.90
7934;DHT22;4012;48.896;9.192;2023-07-13T07:30:48;32.50;99.60
7934;DHT22;4012;48.896;9.192;2023-07-13T07:33:14;32.60;98.20
7934;DHT22;4012;48.896;9.192;2023-07-13T07:35:42;32.40;96.10
7934;DHT22;4012;48.896;9.192;2023-07-13T07:38:08;32.10;94.80
7934;DHT22;4012;48.896;9.192;2023-07-13T07:40:37;31.50;95.50
7934;DHT22;4012;48.896;9.192;2023-07-13T07:43:03;31.70;94.80
7934;DHT22;4012;48.896;9.192;2023-07-13T07:45:29;31.30;95.60
7934;DHT22;4012;48.896;9.192;2023-07-13T07:47:54;31.30;96.10
7934;DHT22;4012;48.896;9.192;2023-07-13T07:50:24;31.30;95.50
7934;DHT22;4012;48.896;9.192;2023-07-13T07:52:50;31.10;94.70
7934;DHT22;4012;48.896;9.192;2023-07-13T07:55:16;32.90;95.10
7934;DHT22;4012;48.896;9.192;2023-07-13T07:57:42;33.60;93.30
7934;DHT22;4012;48.896;9.192;2023-07-13T08:00:08;34.80;90.70
7934;DHT22;4012;48.896;9.192;2023-07-13T08:02:34;32.80;91.10
7934;DHT22;4012;48.896;9.192;2023-07-13T08:04:59;32.50;92.00
7934;DHT22;4012;48.896;9.192;2023-07-13T08:07:25;33.90;90.20
7934;DHT22;4012;48.896;9.192;2023-07-13T08:09:54;33.70;87.80
7934;DHT22;4012;48.896;9.192;2023-07-13T08:12:19;34.10;86.60
7934;DHT22;4012;48.896;9.192;2023-07-13T08:14:50;32.70;88.70
7934;DHT22;4012;48.896;9.192;2023-07-13T08:17:22;33.30;86.80
7934;DHT22;4012;48.896;9.192;2023-07-13T08:19:47;32.20;87.40
7934;DHT22;4012;48.896;9.192;2023-07-13T08:22:13;32.60;88.50
7934;DHT22;4012;48.896;9.192;2023-07-13T08:24:39;32.70;89.40
7934;DHT22;4012;48.896;9.192;2023-07-13T08:27:04;33.00;87.30
7934;DHT22;4012;48.896;9.192;2023-07-13T08:29:30;33.40;86.90
7934;DHT22;4012;48.896;9.192;2023-07-13T08:31:59;33.90;85.60
7934;DHT22;4012;48.896;9.192;2023-07-13T08:34:24;33.20;84.80
7934;DHT22;4012;48.896;9.192;2023-07-13T08:36:50;33.10;84.60
7934;DHT22;4012;48.896;9.192;2023-07-13T08:39:15;33.80;83.90
7934;DHT22;4012;48.896;9.192;2023-07-13T08:41:41;33.50;83.70
7934;DHT22;4012;48.896;9.192;2023-07-13T08:44:20;32.80;84.30
7934;DHT22;4012;48.896;9.192;2023-07-13T08:46:50;33.40;84.60
7934;DHT22;4012;48.896;9.192;2023-07-13T08:49:21;33.20;83.40
7934;DHT22;4012;48.896;9.192;2023-07-13T08:52:02;33.30;84.10
7934;DHT22;4012;48.896;9.192;2023-07-13T08:54:35;32.90;82.80
7934;DHT22;4012;48.896;9.192;2023-07-13T08:57:13;33.00;83.20
7934;DHT22;4012;48.896;9.192;2023-07-13T08:59:39;35.00;82.50
7934;DHT22;4012;48.896;9.192;2023-07-13T09:05:09;35.40;82.10
7934;DHT22;4012;48.896;9.192;2023-07-13T09:08:01;34.90;79.00
7934;DHT22;4012;48.896;9.192;2023-07-13T09:13:13;32.60;82.70
7934;DHT22;4012;48.896;9.192;2023-07-13T09:15:44;33.30;82.70
7934;DHT22;4012;48.896;9.192;2023-07-13T09:18:33;33.80;82.30
7934;DHT22;4012;48.896;9.192;2023-07-13T09:21:05;34.60;79.80
7934;DHT22;4012;48.896;9.192;2023-07-13T09:23:34;33.80;80.40
7934;DHT22;4012;48.896;9.192;2023-07-13T09:26:15;34.80;78.90
7934;DHT22;4012;48.896;9.192;2023-07-13T09:28:44;35.40;77.30
7934;DHT22;4012;48.896;9.192;2023-07-13T09:31:26;35.00;77.50
7934;DHT22;4012;48.896;9.192;2023-07-13T09:33:54;33.10;78.80
7934;DHT22;4012;48.896;9.192;2023-07-13T09:39:41;31.60;79.10
7934;DHT22;4012;48.896;9.192;2023-07-13T09:42:03;31.90;80.40
7934;DHT22;4012;48.896;9.192;2023-07-13T09:44:50;31.20;81.60
7934;DHT22;4012;48.896;9.192;2023-07-13T09:47:19;31.40;80.40
7934;DHT22;4012;48.896;9.192;2023-07-13T09:49:48;31.10;80.20
7934;DHT22;4012;48.896;9.192;2023-07-13T09:52:18;31.80;80.00
7934;DHT22;4012;48.896;9.192;2023-07-13T09:54:46;32.50;79.10
7934;DHT22;4012;48.896;9.192;2023-07-13T09:57:19;31.20;79.90
7934;DHT22;4012;48.896;9.192;2023-07-13T09:59:50;31.90;80.20
7934;DHT22;4012;48.896;9.192;2023-07-13T10:02:25;32.90;78.50
7934;DHT22;4012;48.896;9.192;2023-07-13T10:05:03;32.40;78.40
7934;DHT22;4012;48.896;9.192;2023-07-13T10:07:29;31.70;78.40
7934;DHT22;4012;48.896;9.192;2023-07-13T10:09:56;31.70;78.80
7934;DHT22;4012;48.896;9.192;2023-07-13T10:12:23;31.30;78.00
7934;DHT22;4012;48.896;9.192;2023-07-13T10:14:52;30.80;79.90
7934;DHT22;4012;48.896;9.192;2023-07-13T10:17:27;30.20;80.90
7934;DHT22;4012;48.896;9.192;2023-07-13T10:20:03;30.80;80.60
7934;DHT22;4012;48.896;9.192;2023-07-13T10:22:43;29.00;83.60
7934;DHT22;4012;48.896;9.192;2023-07-13T10:25:16;28.80;85.50
7934;DHT22;4012;48.896;9.192;2023-07-13T10:27:44;28.30;86.90
7934;DHT22;4012;48.896;9.192;2023-07-13T10:30:18;28.70;86.80
7934;DHT22;4012;48.896;9.192;2023-07-13T10:32:46;28.80;85.60
7934;DHT22;4012;48.896;9.192;2023-07-13T10:35:14;29.10;85.40
7934;DHT22;4012;48.896;9.192;2023-07-13T10:37:52;29.70;84.90
7934;DHT22;4012;48.896;9.192;2023-07-13T10:40:24;29.70;85.20
7934;DHT22;4012;48.896;9.192;2023-07-13T10:42:53;29.00;85.00
7934;DHT22;4012;48.896;9.192;2023-07-13T10:45:23;27.80;86.80
7934;DHT22;4012;48.896;9.192;2023-07-13T10:47:51;27.50;88.80
7934;DHT22;4012;48.896;9.192;2023-07-13T10:50:23;29.30;87.20
7934;DHT22;4012;48.896;9.192;2023-07-13T10:52:54;30.00;85.10
7934;DHT22;4012;48.896;9.192;2023-07-13T11:01:04;28.00;85.80
7934;DHT22;4012;48.896;9.192;2023-07-13T11:03:47;28.10;86.50
7934;DHT22;4012;48.896;9.192;2023-07-13T11:06:16;28.60;85.80
7934;DHT22;4012;48.896;9.192;2023-07-13T11:18:52;27.80;87.60
7934;DHT22;4012;48.896;9.192;2023-07-13T11:21:20;27.90;87.20
7934;DHT22;4012;48.896;9.192;2023-07-13T11:24:16;28.00;86.60
7934;DHT22;4012;48.896;9.192;2023-07-13T11:29:36;28.20;85.70
7934;DHT22;4012;48.896;9.192;2023-07-13T11:32:26;27.80;86.00
7934;DHT22;4012;48.896;9.192;2023-07-13T11:34:55;28.30;85.60
7934;DHT22;4012;48.896;9.192;2023-07-13T11:37:22;28.50;85.30
7934;DHT22;4012;48.896;9.192;2023-07-13T11:39:50;28.20;85.50
7934;DHT22;4012;48.896;9.192;2023-07-13T11:42:18;27.90;85.90
7934;DHT22;4012;48.896;9.192;2023-07-13T11:44:48;27.50;87.00
7934;DHT22;4012;48.896;9.192;2023-07-13T11:47:21;28.10;87.00
7934;DHT22;4012;48.896;9.192;2023-07-13T11:49:53;28.20;86.50
7934;DHT22;4012;48.896;9.192;2023-07-13T11:52:39;28.20;85.10
7934;DHT22;4012;48.896;9.192;2023-07-13T11:55:14;27.70;84.70
7934;DHT22;4012;48.896;9.192;2023-07-13T11:57:56;26.90;86.60
7934;DHT22;4012;48.896;9.192;2023-07-13T12:00:26;26.30;88.00
7934;DHT22;4012;48.896;9.192;2023-07-13T12:02:55;26.60;88.60
7934;DHT22;4012;48.896;9.192;2023-07-13T12:05:21;27.20;87.30
7934;DHT22;4012;48.896;9.192;2023-07-13T12:07:48;28.00;87.20
7934;DHT22;4012;48.896;9.192;2023-07-13T12:10:19;27.90;86.90
7934;DHT22;4012;48.896;9.192;2023-07-13T12:12:55;28.50;86.20
7934;DHT22;4012;48.896;9.192;2023-07-13T12:15:22;28.10;86.50
7934;DHT22;4012;48.896;9.192;2023-07-13T12:17:49;28.80;85.30
7934;DHT22;4012;48.896;9.192;2023-07-13T12:20:38;29.10;84.50
7934;DHT22;4012;48.896;9.192;2023-07-13T12:23:24;28.20;84.60
7934;DHT22;4012;48.896;9.192;2023-07-13T12:25:51;27.70;85.00
7934;DHT22;4012;48.896;9.192;2023-07-13T12:28:37;27.30;84.70
7934;DHT22;4012;48.896;9.192;2023-07-13T12:31:05;27.40;85.10
7934;DHT22;4012;48.896;9.192;2023-07-13T12:33:32;27.70;85.60
7934;DHT22;4012;48.896;9.192;2023-07-13T12:36:02;27.70;84.70
7934;DHT22;4012;48.896;9.192;2023-07-13T12:38:31;27.60;85.40
7934;DHT22;4012;48.896;9.192;2023-07-13T12:40:57;27.80;84.90
7934;DHT22;4012;48.896;9.192;2023-07-13T12:43:24;27.80;84.30
7934;DHT22;4012;48.896;9.192;2023-07-13T12:48:41;28.00;83.80
7934;DHT22;4012;48.896;9.192;2023-07-13T12:51:13;27.70;81.90
7934;DHT22;4012;48.896;9.192;2023-07-13T12:53:43;27.90;83.20
7934;DHT22;4012;48.896;9.192;2023-07-13T12:56:22;28.50;81.10
7934;DHT22;4012;48.896;9.192;2023-07-13T12:58:50;28.00;82.20
7934;DHT22;4012;48.896;9.192;2023-07-13T13:01:26;27.40;83.40
7934;DHT22;4012;48.896;9.192;2023-07-13T13:03:53;27.80;83.20
7934;DHT22;4012;48.896;9.192;2023-07-13T13:06:28;28.10;82.60
7934;DHT22;4012;48.896;9.192;2023-07-13T13:08:56;28.00;81.80
7934;DHT22;4012;48.896;9.192;2023-07-13T13:11:24;27.40;82.60
7934;DHT22;4012;48.896;9.192;2023-07-13T13:13:51;27.60;83.40
7934;DHT22;4012;48.896;9.192;2023-07-13T13:18:50;27.50;83.60
7934;DHT22;4012;48.896;9.192;2023-07-13T13:21:17;27.60;83.40
7934;DHT22;4012;48.896;9.192;2023-07-13T13:23:44;27.80;82.40
7934;DHT22;4012;48.896;9.192;2023-07-13T13:26:14;27.90;82.50
7934;DHT22;4012;48.896;9.192;2023-07-13T13:28:43;27.80;82.60
7934;DHT22;4012;48.896;9.192;2023-07-13T13:31:10;28.20;82.20
7934;DHT22;4012;48.896;9.192;2023-07-13T13:33:38;28.00;82.50
7934;DHT22;4012;48.896;9.192;2023-07-13T13:36:18;28.40;82.90
7934;DHT22;4012;48.896;9.192;2023-07-13T13:38:44;28.20;81.50
7934;DHT22;4012;48.896;9.192;2023-07-13T13:41:11;27.50;83.10
7934;DHT22;4012;48.896;9.192;2023-07-13T13:43:38;27.00;81.50
7934;DHT22;4012;48.896;9.192;2023-07-13T13:46:15;27.30;82.00
7934;DHT22;4012;48.896;9.192;2023-07-13T13:48:42;26.90;80.60
7934;DHT22;4012;48.896;9.192;2023-07-13T13:51:20;27.10;81.60
7934;DHT22;4012;48.896;9.192;2023-07-13T13:53:46;27.70;80.50
7934;DHT22;4012;48.896;9.192;2023-07-13T13:56:16;27.70;80.40
7934;DHT22;4012;48.896;9.192;2023-07-13T13:58:42;27.10;81.60
7934;DHT22;4012;48.896;9.192;2023-07-13T14:01:20;27.20;83.30
7934;DHT22;4012;48.896;9.192;2023-07-13T14:03:46;27.50;82.70
7934;DHT22;4012;48.896;9.192;2023-07-13T14:06:15;27.20;83.30
7934;DHT22;4012;48.896;9.192;2023-07-13T14:08:41;27.10;82.40
7934;DHT22;4012;48.896;9.192;2023-07-13T14:11:11;27.50;83.80
7934;DHT22;4012;48.896;9.192;2023-07-13T14:13:43;27.80;84.20
7934;DHT22;4012;48.896;9.192;2023-07-13T14:16:15;27.50;84.00
7934;DHT22;4012;48.896;9.192;2023-07-13T14:18:43;27.30;85.10
7934;DHT22;4012;48.896;9.192;2023-07-13T14:21:18;27.50;83.90
7934;DHT22;4012;48.896;9.192;2023-07-13T14:23:45;27.60;82.70
7934;DHT22;4012;48.896;9.192;2023-07-13T14:26:17;27.70;81.30
7934;DHT22;4012;48.896;9.192;2023-07-13T14:28:45;27.60;81.40
7934;DHT22;4012;48.896;9.192;2023-07-13T14:31:13;27.50;79.50
7934;DHT22;4012;48.896;9.192;2023-07-13T14:33:39;27.40;79.00
7934;DHT22;4012;48.896;9.192;2023-07-13T14:38:42;27.10;83.00
7934;DHT22;4012;48.896;9.192;2023-07-13T14:41:08;26.80;83.90
7934;DHT22;4012;48.896;9.192;2023-07-13T14:43:34;27.00;85.00
7934;DHT22;4012;48.896;9.192;2023-07-13T14:45:59;27.10;83.80
7934;DHT22;4012;48.896;9.192;2023-07-13T14:48:25;26.90;83.90
7934;DHT22;4012;48.896;9.192;2023-07-13T14:50:55;26.70;84.60
7934;DHT22;4012;48.896;9.192;2023-07-13T14:53:21;26.90;85.80
7934;DHT22;4012;48.896;9.192;2023-07-13T14:55:47;27.00;85.20
7934;DHT22;4012;48.896;9.192;2023-07-13T14:58:13;26.90;84.50
7934;DHT22;4012;48.896;9.192;2023-07-13T15:00:39;27.00;85.60
7934;DHT22;4012;48.896;9.192;2023-07-13T15:03:18;27.10;86.40
7934;DHT22;4012;48.896;9.192;2023-07-13T15:05:47;27.50;85.10
7934;DHT22;4012;48.896;9.192;2023-07-13T15:08:13;27.50;84.70
7934;DHT22;4012;48.896;9.192;2023-07-13T15:10:40;27.30;84.90
7934;DHT22;4012;48.896;9.192;2023-07-13T15:13:19;27.30;85.30
7934;DHT22;4012;48.896;9.192;2023-07-13T15:15:51;26.70;86.30
7934;DHT22;4012;48.896;9.192;2023-07-13T15:18:24;27.00;86.30
7934;DHT22;4012;48.896;9.192;2023-07-13T15:20:51;27.00;85.90
7934;DHT22;4012;48.896;9.192;2023-07-13T15:23:21;27.00;84.90
7934;DHT22;4012;48.896;9.192;2023-07-13T15:25:49;26.90;86.00
7934;DHT22;4012;48.896;9.192;2023-07-13T15:28:15;26.60;85.70
7934;DHT22;4012;48.896;9.192;2023-07-13T15:30:47;26.70;86.40
7934;DHT22;4012;48.896;9.192;2023-07-13T15:35:48;26.80;86.30
7934;DHT22;4012;48.896;9.192;2023-07-13T15:38:29;26.80;86.60
7934;DHT22;4012;48.896;9.192;2023-07-13T15:40:56;26.90;87.70
7934;DHT22;4012;48.896;9.192;2023-07-13T15:43:22;26.80;87.10
7934;DHT22;4012;48.896;9.192;2023-07-13T15:45:48;26.90;87.60
7934;DHT22;4012;48.896;9.192;2023-07-13T15:50:47;26.50;87.80
7934;DHT22;4012;48.896;9.192;2023-07-13T15:53:24;26.40;88.30
7934;DHT22;4012;48.896;9.192;2023-07-13T15:55:51;26.30;88.70
7934;DHT22;4012;48.896;9.192;2023-07-13T15:58:18;26.60;88.70
7934;DHT22;4012;48.896;9.192;2023-07-13T16:00:44;26.70;88.40
7934;DHT22;4012;48.896;9.192;2023-07-13T16:03:10;26.80;88.20
7934;DHT22;4012;48.896;9.192;2023-07-13T16:05:36;26.60;88.40
7934;DHT22;4012;48.896;9.192;2023-07-13T16:08:06;26.60;89.10
7934;DHT22;4012;48.896;9.192;2023-07-13T16:10:41;26.60;88.60
7934;DHT22;4012;48.896;9.192;2023-07-13T16:13:14;26.50;88.50
7934;DHT22;4012;48.896;9.192;2023-07-13T16:15:40;26.30;89.00
7934;DHT22;4012;48.896;9.192;2023-07-13T16:18:10;26.20;89.20
7934;DHT22;4012;48.896;9.192;2023-07-13T16:20:42;26.40;88.90
7934;DHT22;4012;48.896;9.192;2023-07-13T16:23:10;26.50;88.50
7934;DHT22;4012;48.896;9.192;2023-07-13T16:25:37;26.40;88.80
7934;DHT22;4012;48.896;9.192;2023-07-13T16:28:03;26.30;89.00
7934;DHT22;4012;48.896;9.192;2023-07-13T16:30:30;26.10;90.20
7934;DHT22;4012;48.896;9.192;2023-07-13T16:32:57;26.20;89.70
7934;DHT22;4012;48.896;9.192;2023-07-13T16:35:27;26.00;89.50
7934;DHT22;4012;48.896;9.192;2023-07-13T16:37:53;25.90;90.10
7934;DHT22;4012;48.896;9.192;2023-07-13T16:42:51;26.10;89.60
7934;DHT22;4012;48.896;9.192;2023-07-13T16:45:21;26.20;89.80
7934;DHT22;4012;48.896;9.192;2023-07-13T16:47:50;26.20;90.00
7934;DHT22;4012;48.896;9.192;2023-07-13T16:50:21;26.40;89.90
7934;DHT22;4012;48.896;9.192;2023-07-13T16:52:47;26.30;89.80
7934;DHT22;4012;48.896;9.192;2023-07-13T16:55:15;26.30;90.10